createdAt,value
2023-01-26T00:01:23.821Z,27.00
2023-01-26T00:03:51.280Z,35.23
2023-01-26T00:06:20.228Z,30.10
2023-01-26T00:08:50.579Z,25.60
2023-01-26T00:11:21.094Z,28.70
2023-01-26T00:13:50.778Z,26.60
2023-01-26T00:16:17.960Z,25.37
2023-01-26T00:18:44.888Z,26.67
2023-01-26T00:21:20.855Z,30.93
2023-01-26T00:23:48.890Z,28.33
2023-01-26T00:26:23.187Z,24.03
2023-01-26T00:28:53.758Z,25.83
2023-01-26T00:31:27.269Z,26.60
2023-01-26T00:33:55.762Z,25.07
2023-01-26T00:36:23.310Z,22.60
2023-01-26T00:38:50.183Z,26.30
2023-01-26T00:41:35.348Z,24.27
2023-01-26T00:44:02.362Z,21.77
2023-01-26T00:46:29.562Z,21.60
2023-01-26T00:48:56.521Z,21.27
2023-01-26T00:51:23.410Z,23.57
2023-01-26T00:53:50.305Z,18.73
2023-01-26T00:56:17.191Z,20.60
2023-01-26T00:58:45.700Z,26.87
2023-01-26T01:01:12.827Z,24.63
2023-01-26T01:03:42.620Z,20.50
2023-01-26T01:06:09.536Z,19.67
2023-01-26T01:08:36.476Z,23.43
2023-01-26T01:11:06.180Z,18.73
2023-01-26T01:13:33.153Z,18.70
2023-01-26T01:16:00.094Z,18.67
2023-01-26T01:18:27.025Z,18.33
2023-01-26T01:20:53.907Z,21.53
2023-01-26T01:23:20.834Z,18.57
2023-01-26T01:25:47.764Z,19.53
2023-01-26T01:28:14.889Z,22.77
2023-01-26T01:30:41.784Z,24.87
2023-01-26T01:33:08.668Z,21.63
2023-01-26T01:35:35.823Z,24.27
2023-01-26T01:38:03.035Z,24.00
2023-01-26T01:40:29.920Z,23.03
2023-01-26T01:42:56.853Z,17.97
2023-01-26T01:45:26.654Z,23.20
2023-01-26T01:47:57.749Z,18.57
2023-01-26T01:50:26.495Z,21.20
2023-01-26T01:52:55.874Z,20.67
2023-01-26T01:55:25.546Z,21.40
2023-01-26T01:57:58.935Z,18.73
2023-01-26T02:00:26.877Z,19.90
2023-01-26T02:03:19.053Z,19.10
2023-01-26T02:06:12.245Z,22.13
2023-01-26T02:08:44.282Z,24.77
2023-01-26T02:11:22.690Z,23.47
2023-01-26T02:13:50.565Z,19.00
2023-01-26T02:16:19.028Z,22.90
2023-01-26T02:18:47.044Z,21.77
2023-01-26T02:21:20.623Z,25.30
2023-01-26T02:23:58.739Z,19.93
2023-01-26T02:26:29.390Z,19.07
2023-01-26T02:28:56.781Z,14.27
2023-01-26T02:31:25.363Z,18.07
2023-01-26T02:33:53.668Z,14.70
2023-01-26T02:36:31.909Z,15.33
2023-01-26T02:39:30.176Z,12.67
2023-01-26T02:42:15.765Z,20.77
2023-01-26T02:44:44.001Z,17.37
2023-01-26T02:47:17.144Z,14.20
2023-01-26T02:49:50.388Z,24.10
2023-01-26T02:52:26.557Z,21.03
2023-01-26T02:55:17.173Z,17.60
2023-01-26T02:57:45.417Z,14.40
2023-01-26T03:00:22.531Z,14.13
2023-01-26T03:02:53.917Z,14.90
2023-01-26T03:05:20.812Z,15.67
2023-01-26T03:07:47.997Z,15.63
2023-01-26T03:10:18.595Z,15.27
2023-01-26T03:12:46.400Z,15.33
2023-01-26T03:15:31.931Z,16.73
2023-01-26T03:18:37.159Z,14.40
2023-01-26T03:21:33.488Z,16.77
2023-01-26T03:24:20.320Z,15.97
2023-01-26T03:27:06.255Z,18.80
2023-01-26T03:29:34.451Z,13.30
2023-01-26T03:32:02.194Z,15.87
2023-01-26T03:34:29.803Z,13.40
2023-01-26T03:36:57.797Z,8.77
2023-01-26T03:39:43.838Z,15.17
2023-01-26T03:42:29.229Z,9.13
2023-01-26T03:45:15.288Z,12.60
2023-01-26T03:48:01.933Z,10.30
2023-01-26T03:50:49.048Z,11.40
2023-01-26T03:53:38.844Z,10.33
2023-01-26T03:56:22.835Z,11.80
2023-01-26T03:58:55.313Z,10.13
2023-01-26T04:01:27.775Z,6.63
2023-01-26T04:04:16.244Z,9.03
2023-01-26T04:07:05.278Z,8.23
2023-01-26T04:09:33.522Z,10.50
2023-01-26T04:12:00.550Z,7.90
2023-01-26T04:14:49.739Z,10.63
2023-01-26T04:17:39.780Z,12.03
2023-01-26T04:20:26.256Z,8.47
2023-01-26T04:22:53.230Z,10.07
2023-01-26T04:25:21.977Z,9.50
2023-01-26T04:27:49.419Z,9.90
2023-01-26T04:30:17.835Z,11.70
2023-01-26T04:32:46.264Z,9.47
2023-01-26T04:35:14.281Z,12.70
2023-01-26T04:37:42.771Z,9.60
2023-01-26T04:40:10.865Z,10.37
2023-01-26T04:42:38.796Z,8.47
2023-01-26T04:45:06.771Z,10.00
2023-01-26T04:47:34.912Z,10.30
2023-01-26T04:50:03.379Z,10.03
2023-01-26T04:52:30.308Z,13.27
2023-01-26T04:54:57.231Z,11.30
2023-01-26T04:57:24.620Z,12.03
2023-01-26T04:59:52.419Z,10.80
2023-01-26T05:02:20.516Z,9.10
2023-01-26T05:04:47.481Z,9.43
2023-01-26T05:07:15.464Z,12.10
2023-01-26T05:09:44.167Z,11.27
2023-01-26T05:12:37.476Z,9.40
2023-01-26T05:15:22.375Z,9.53
2023-01-26T05:18:21.319Z,11.10
2023-01-26T05:20:59.898Z,17.63
2023-01-26T05:23:29.282Z,13.67
2023-01-26T05:26:14.512Z,12.17
2023-01-26T05:28:55.644Z,18.20
2023-01-26T05:31:23.098Z,12.43
2023-01-26T05:33:50.505Z,16.73
2023-01-26T05:36:21.808Z,20.40
2023-01-26T05:38:48.799Z,19.93
2023-01-26T05:41:19.456Z,14.70
2023-01-26T05:44:20.389Z,16.00
2023-01-26T05:47:06.868Z,20.40
2023-01-26T05:49:34.336Z,25.90
2023-01-26T05:52:01.412Z,16.50
2023-01-26T05:54:29.319Z,17.10
2023-01-26T05:56:57.613Z,17.37
2023-01-26T05:59:26.135Z,14.53
2023-01-26T06:01:53.260Z,12.60
2023-01-26T06:04:20.434Z,14.77
2023-01-26T06:07:00.879Z,16.77
2023-01-26T06:09:53.935Z,15.20
2023-01-26T06:12:48.066Z,15.37
2023-01-26T06:15:20.050Z,13.53
2023-01-26T06:17:48.923Z,10.50
2023-01-26T06:20:17.941Z,12.00
2023-01-26T06:22:54.349Z,12.90
2023-01-26T06:25:21.285Z,14.17
2023-01-26T06:27:48.237Z,13.30
2023-01-26T06:30:24.144Z,12.80
2023-01-26T06:32:51.427Z,14.73
2023-01-26T06:35:18.590Z,14.00
2023-01-26T06:37:51.448Z,15.50
2023-01-26T06:40:19.653Z,16.33
2023-01-26T06:42:50.199Z,12.10
2023-01-26T06:45:20.589Z,12.60
2023-01-26T06:47:50.281Z,12.30
2023-01-26T06:50:21.264Z,11.70
2023-01-26T06:52:52.538Z,13.73
2023-01-26T06:55:39.144Z,10.60
2023-01-26T06:58:24.735Z,13.63
2023-01-26T07:01:26.093Z,13.30
2023-01-26T07:03:54.967Z,9.53
2023-01-26T07:06:22.061Z,13.50
2023-01-26T07:08:48.944Z,13.57
2023-01-26T07:11:16.838Z,9.77
2023-01-26T07:13:43.762Z,8.80
2023-01-26T07:16:14.003Z,8.83
2023-01-26T07:18:40.898Z,11.07
2023-01-26T07:21:22.892Z,7.30
2023-01-26T07:23:52.034Z,11.43
2023-01-26T07:26:20.510Z,8.80
2023-01-26T07:28:47.494Z,6.87
2023-01-26T07:31:14.533Z,8.83
2023-01-26T07:33:41.524Z,8.70
2023-01-26T07:36:08.977Z,10.13
2023-01-26T07:38:35.850Z,11.53
2023-01-26T07:41:10.135Z,7.50
2023-01-26T07:43:38.504Z,11.70
2023-01-26T07:46:10.794Z,8.80
2023-01-26T07:48:37.756Z,9.00
2023-01-26T07:51:06.050Z,7.43
2023-01-26T07:53:37.584Z,9.43
2023-01-26T07:56:11.193Z,9.50
2023-01-26T07:58:38.261Z,9.63
2023-01-26T08:01:12.990Z,9.60
2023-01-26T08:03:40.714Z,10.93
2023-01-26T08:06:11.677Z,9.70
2023-01-26T08:08:42.133Z,11.67
2023-01-26T08:11:11.199Z,11.17
2023-01-26T08:13:38.556Z,12.73
2023-01-26T08:16:12.321Z,14.93
2023-01-26T08:18:41.598Z,14.60
2023-01-26T08:21:10.085Z,17.67
2023-01-26T08:23:37.107Z,14.00
2023-01-26T08:26:07.937Z,17.00
2023-01-26T08:28:35.840Z,14.53
2023-01-26T08:31:18.648Z,14.73
2023-01-26T08:33:48.335Z,16.23
2023-01-26T08:36:15.887Z,13.80
2023-01-26T08:38:43.664Z,14.40
2023-01-26T08:41:11.064Z,16.83
2023-01-26T08:43:38.365Z,14.87
2023-01-26T08:46:06.133Z,14.37
2023-01-26T08:48:33.552Z,12.20
2023-01-26T08:51:03.571Z,12.97
2023-01-26T08:53:33.755Z,12.23
2023-01-26T08:56:09.928Z,11.70
2023-01-26T08:58:36.896Z,10.90
2023-01-26T09:01:10.700Z,18.97
2023-01-26T09:03:37.794Z,11.67
2023-01-26T09:06:06.346Z,10.00
2023-01-26T09:08:33.324Z,11.63
2023-01-26T09:11:00.320Z,11.13
2023-01-26T09:13:27.181Z,7.63
2023-01-26T09:15:54.271Z,7.50
2023-01-26T09:18:21.119Z,8.97
2023-01-26T09:20:48.016Z,8.20
2023-01-26T09:23:16.848Z,8.10
2023-01-26T09:25:44.526Z,8.80
2023-01-26T09:28:11.402Z,7.17
2023-01-26T09:30:38.359Z,8.70
2023-01-26T09:33:06.859Z,7.60
2023-01-26T09:35:33.790Z,8.83
2023-01-26T09:38:00.687Z,8.73
2023-01-26T09:40:42.845Z,9.70
2023-01-26T09:43:52.751Z,11.13
2023-01-26T09:46:58.099Z,10.37
2023-01-26T09:49:49.858Z,12.13
2023-01-26T09:52:28.519Z,12.00
2023-01-26T09:54:59.084Z,12.17
2023-01-26T09:57:38.332Z,10.90
2023-01-26T10:00:29.571Z,16.20
2023-01-26T10:03:20.409Z,11.83
2023-01-26T10:05:55.858Z,10.93
2023-01-26T10:08:43.608Z,13.47
2023-01-26T10:11:41.150Z,10.20
2023-01-26T10:14:16.255Z,15.17
2023-01-26T10:16:49.180Z,11.97
2023-01-26T10:19:42.927Z,17.53
2023-01-26T10:22:31.951Z,12.50
2023-01-26T10:25:00.361Z,12.13
2023-01-26T10:27:29.516Z,11.63
2023-01-26T10:29:56.561Z,15.43
2023-01-26T10:32:23.655Z,12.27
2023-01-26T10:34:51.773Z,13.40
2023-01-26T10:37:26.745Z,13.53
2023-01-26T10:40:07.500Z,12.87
2023-01-26T10:42:36.702Z,14.03
2023-01-26T10:45:28.643Z,13.90
2023-01-26T10:48:34.234Z,13.30
2023-01-26T10:51:16.337Z,16.37
2023-01-26T10:53:43.231Z,14.33
2023-01-26T10:56:17.116Z,13.07
2023-01-26T10:58:57.784Z,15.10
2023-01-26T11:01:27.677Z,12.63
2023-01-26T11:04:06.209Z,12.73
2023-01-26T11:06:33.624Z,13.17
2023-01-26T11:09:13.673Z,14.43
2023-01-26T11:11:41.371Z,14.20
2023-01-26T11:14:18.586Z,14.80
2023-01-26T11:17:29.605Z,13.80
2023-01-26T11:20:43.809Z,14.77
2023-01-26T11:23:41.169Z,13.83
2023-01-26T11:26:18.047Z,13.93
2023-01-26T11:29:23.356Z,13.80
2023-01-26T11:32:05.599Z,14.00
2023-01-26T11:34:55.785Z,9.40
2023-01-26T11:37:53.826Z,12.80
2023-01-26T11:40:45.327Z,14.70
2023-01-26T11:43:40.355Z,13.07
2023-01-26T11:46:44.743Z,10.73
2023-01-26T11:49:44.052Z,13.10
2023-01-26T11:52:35.905Z,12.80
2023-01-26T11:55:18.572Z,14.00
2023-01-26T11:58:12.762Z,12.80
2023-01-26T12:00:56.947Z,14.63
2023-01-26T12:03:50.431Z,14.97
2023-01-26T12:06:30.732Z,13.73
2023-01-26T12:09:18.930Z,15.20
2023-01-26T12:12:30.884Z,14.07
2023-01-26T12:15:05.835Z,14.17
2023-01-26T12:17:53.496Z,17.10
2023-01-26T12:20:34.708Z,19.63
2023-01-26T12:23:41.940Z,15.00
2023-01-26T12:26:16.115Z,17.37
2023-01-26T12:28:53.345Z,16.17
2023-01-26T12:31:33.497Z,19.93
2023-01-26T12:34:00.425Z,20.10
2023-01-26T12:37:01.797Z,18.93
2023-01-26T12:39:44.502Z,14.83
2023-01-26T12:42:39.722Z,16.77
2023-01-26T12:45:19.341Z,16.53
2023-01-26T12:47:52.293Z,15.10
2023-01-26T12:50:48.135Z,16.00
2023-01-26T12:53:30.187Z,14.53
2023-01-26T12:56:25.393Z,14.00
2023-01-26T12:58:54.102Z,16.43
2023-01-26T13:01:24.176Z,14.63
2023-01-26T13:04:11.140Z,12.50
2023-01-26T13:06:38.130Z,11.50
2023-01-26T13:09:25.934Z,10.57
2023-01-26T13:12:00.213Z,13.20
2023-01-26T13:14:59.277Z,14.53
2023-01-26T13:17:27.297Z,14.97
2023-01-26T13:20:00.061Z,13.80
2023-01-26T13:22:26.968Z,11.50
2023-01-26T13:24:59.585Z,11.53
2023-01-26T13:27:47.213Z,11.30
2023-01-26T13:30:25.763Z,13.40
2023-01-26T13:33:22.269Z,15.47
2023-01-26T13:35:51.693Z,18.00
2023-01-26T13:38:31.420Z,11.87
2023-01-26T13:40:59.040Z,10.47
2023-01-26T13:43:41.112Z,13.23
2023-01-26T13:46:39.879Z,11.23
2023-01-26T13:49:23.792Z,11.77
2023-01-26T13:51:50.696Z,13.10
2023-01-26T13:54:17.939Z,15.63
2023-01-26T13:57:05.316Z,15.43
2023-01-26T13:59:35.485Z,14.50
2023-01-26T14:02:02.456Z,18.23
2023-01-26T14:04:32.240Z,16.10
2023-01-26T14:07:05.734Z,15.97
2023-01-26T14:09:48.126Z,16.30
2023-01-26T14:12:23.662Z,16.80
2023-01-26T14:14:54.339Z,14.83
2023-01-26T14:17:50.323Z,15.17
2023-01-26T14:20:30.492Z,12.80
2023-01-26T14:23:19.258Z,11.90
2023-01-26T14:25:57.337Z,12.40
2023-01-26T14:28:31.323Z,13.30
2023-01-26T14:31:15.232Z,10.13
2023-01-26T14:33:42.272Z,12.40
2023-01-26T14:36:17.572Z,12.73
2023-01-26T14:38:48.564Z,15.20
2023-01-26T14:41:31.718Z,15.13
2023-01-26T14:44:04.083Z,13.10
2023-01-26T14:47:18.735Z,17.17
2023-01-26T14:50:01.218Z,13.37
2023-01-26T14:52:34.551Z,11.33
2023-01-26T14:55:28.104Z,15.00
2023-01-26T14:57:57.244Z,11.30
2023-01-26T15:00:35.609Z,11.70
2023-01-26T15:03:13.509Z,15.07
2023-01-26T15:05:44.001Z,13.10
2023-01-26T15:08:22.396Z,13.47
2023-01-26T15:11:18.499Z,20.93
2023-01-26T15:13:52.070Z,17.27
2023-01-26T15:16:22.921Z,14.90
2023-01-26T15:19:08.233Z,13.70
2023-01-26T15:21:40.211Z,11.63
2023-01-26T15:24:14.313Z,12.77
2023-01-26T15:26:41.900Z,11.90
2023-01-26T15:29:32.916Z,15.70
2023-01-26T15:32:00.223Z,13.20
2023-01-26T15:34:39.107Z,15.40
2023-01-26T15:37:30.111Z,13.80
2023-01-26T15:39:57.134Z,12.00
2023-01-26T15:42:31.106Z,13.33
2023-01-26T15:44:58.257Z,16.27
2023-01-26T15:47:25.675Z,14.13
2023-01-26T15:49:52.587Z,18.40
2023-01-26T15:52:25.478Z,17.80
2023-01-26T15:54:53.848Z,15.30
2023-01-26T15:57:20.776Z,15.40
2023-01-26T15:59:47.692Z,16.80
2023-01-26T16:02:19.623Z,13.73
2023-01-26T16:04:47.147Z,29.00
2023-01-26T16:07:18.594Z,19.10
2023-01-26T16:09:45.733Z,18.93
2023-01-26T16:12:33.517Z,15.27
2023-01-26T16:15:00.706Z,17.30
2023-01-26T16:17:27.653Z,16.40
2023-01-26T16:19:54.531Z,17.80
2023-01-26T16:22:21.422Z,23.10
2023-01-26T16:24:48.324Z,25.37
2023-01-26T16:27:15.228Z,27.67
2023-01-26T16:29:42.122Z,23.33
2023-01-26T16:32:29.611Z,22.60
2023-01-26T16:34:56.561Z,20.63
2023-01-26T16:37:23.486Z,20.63
2023-01-26T16:39:50.371Z,24.63
2023-01-26T16:42:19.294Z,22.53
2023-01-26T16:44:47.080Z,25.27
2023-01-26T16:47:13.983Z,23.80
2023-01-26T16:49:40.853Z,19.77
2023-01-26T16:52:09.026Z,23.17
2023-01-26T16:54:36.036Z,25.33
2023-01-26T16:57:02.958Z,23.03
2023-01-26T16:59:29.848Z,17.43
2023-01-26T17:01:57.210Z,20.33
2023-01-26T17:04:24.131Z,22.80
2023-01-26T17:06:51.114Z,21.40
2023-01-26T17:09:17.999Z,23.57
2023-01-26T17:11:44.897Z,19.57
2023-01-26T17:14:12.814Z,29.30
2023-01-26T17:16:39.833Z,27.10
2023-01-26T17:19:09.139Z,24.00
2023-01-26T17:21:36.617Z,25.60
2023-01-26T17:24:04.037Z,28.87
2023-01-26T17:26:30.994Z,20.80
2023-01-26T17:28:57.888Z,21.13
2023-01-26T17:31:25.619Z,22.40
2023-01-26T17:33:52.734Z,21.00
2023-01-26T17:36:20.573Z,22.70
2023-01-26T17:38:48.481Z,20.80
2023-01-26T17:41:16.695Z,23.37
2023-01-26T17:43:43.729Z,23.03
2023-01-26T17:46:19.499Z,23.20
2023-01-26T17:48:47.790Z,21.83
2023-01-26T17:51:18.407Z,22.73
2023-01-26T17:53:47.759Z,25.47
2023-01-26T17:56:19.486Z,24.60
2023-01-26T17:58:51.978Z,22.43
2023-01-26T18:01:20.330Z,27.97
2023-01-26T18:03:47.547Z,22.93
2023-01-26T18:06:14.708Z,22.80
2023-01-26T18:08:41.902Z,27.63
2023-01-26T18:11:12.177Z,21.20
2023-01-26T18:13:39.277Z,21.03
2023-01-26T18:16:08.115Z,22.90
2023-01-26T18:18:35.513Z,21.90
2023-01-26T18:21:13.613Z,25.60
2023-01-26T18:23:43.801Z,22.43
2023-01-26T18:26:10.733Z,25.70
2023-01-26T18:28:39.614Z,25.70
2023-01-26T18:31:16.297Z,26.67
2023-01-26T18:33:43.702Z,20.27
2023-01-26T18:36:13.608Z,25.50
2023-01-26T18:38:42.221Z,21.57
2023-01-26T18:41:11.683Z,21.33
2023-01-26T18:43:39.207Z,18.97
2023-01-26T18:46:06.770Z,19.50
2023-01-26T18:48:37.605Z,18.50
2023-01-26T18:51:05.100Z,20.07
2023-01-26T18:53:32.047Z,21.70
2023-01-26T18:56:08.884Z,17.10
2023-01-26T18:58:37.759Z,15.70
2023-01-26T19:01:09.769Z,14.83
2023-01-26T19:03:37.849Z,14.53
2023-01-26T19:06:06.073Z,14.40
2023-01-26T19:08:34.318Z,14.60
2023-01-26T19:11:08.049Z,12.10
2023-01-26T19:13:35.609Z,14.07
2023-01-26T19:16:02.507Z,12.70
2023-01-26T19:18:29.483Z,15.67
2023-01-26T19:21:02.137Z,12.33
2023-01-26T19:23:29.540Z,14.70
2023-01-26T19:25:56.863Z,13.47
2023-01-26T19:28:23.765Z,12.93
2023-01-26T19:30:50.661Z,13.80
2023-01-26T19:33:28.957Z,14.60
2023-01-26T19:35:56.612Z,13.00
2023-01-26T19:38:24.405Z,11.80
2023-01-26T19:40:52.286Z,14.00
2023-01-26T19:43:20.515Z,12.90
2023-01-26T19:45:56.449Z,14.67
2023-01-26T19:48:25.988Z,11.40
2023-01-26T19:51:23.699Z,12.43
2023-01-26T19:53:55.405Z,15.50
2023-01-26T19:56:26.531Z,15.33
2023-01-26T19:58:56.736Z,15.73
2023-01-26T20:01:25.322Z,12.60
2023-01-26T20:03:56.243Z,15.83
2023-01-26T20:06:28.601Z,16.77
2023-01-26T20:08:56.159Z,15.50
2023-01-26T20:11:25.191Z,15.83
2023-01-26T20:14:06.347Z,35.23
2023-01-26T20:16:34.271Z,15.40
2023-01-26T20:19:02.088Z,17.33
2023-01-26T20:21:30.927Z,14.83
2023-01-26T20:23:58.346Z,15.30
2023-01-26T20:26:27.433Z,17.77
2023-01-26T20:28:57.954Z,16.30
2023-01-26T20:31:26.101Z,24.20
2023-01-26T20:33:53.560Z,23.10
2023-01-26T20:36:24.803Z,21.53
2023-01-26T20:38:52.153Z,23.30
2023-01-26T20:41:25.750Z,23.47
2023-01-26T20:44:00.854Z,20.57
2023-01-26T20:46:38.135Z,17.30
2023-01-26T20:49:08.555Z,16.30
2023-01-26T20:51:38.087Z,23.10
2023-01-26T20:54:07.490Z,23.70
2023-01-26T20:56:35.588Z,28.90
2023-01-26T20:59:02.963Z,24.70
2023-01-26T21:01:30.294Z,22.40
2023-01-26T21:03:57.211Z,25.77
2023-01-26T21:06:24.606Z,21.03
2023-01-26T21:08:56.277Z,20.60
2023-01-26T21:11:26.171Z,18.60
2023-01-26T21:13:55.603Z,21.97
2023-01-26T21:16:23.296Z,20.60
2023-01-26T21:18:51.476Z,26.53
2023-01-26T21:21:19.334Z,16.73
2023-01-26T21:23:46.808Z,35.57
2023-01-26T21:26:23.583Z,22.73
2023-01-26T21:28:56.245Z,21.30
2023-01-26T21:31:25.970Z,18.00
2023-01-26T21:33:53.764Z,17.40
2023-01-26T21:36:24.305Z,34.03
2023-01-26T21:38:54.470Z,22.47
2023-01-26T21:41:42.973Z,16.80
2023-01-26T21:44:26.116Z,25.17
2023-01-26T21:49:35.759Z,17.40
2023-01-26T21:52:23.391Z,23.00
2023-01-26T21:54:53.025Z,22.40
2023-01-26T21:57:38.358Z,22.23
2023-01-26T22:00:05.752Z,22.90
2023-01-26T22:02:33.364Z,26.07
2023-01-26T22:05:00.251Z,29.23
2023-01-26T22:07:29.745Z,20.63
2023-01-26T22:10:00.687Z,19.50
2023-01-26T22:12:27.692Z,20.90
2023-01-26T22:14:54.601Z,22.70
2023-01-26T22:17:21.720Z,23.00
2023-01-26T22:19:48.621Z,18.53
2023-01-26T22:22:15.495Z,29.30
2023-01-26T22:24:42.398Z,28.17
2023-01-26T22:27:09.339Z,25.93
2023-01-26T22:29:36.249Z,21.40
2023-01-26T22:32:03.712Z,22.17
2023-01-26T22:34:30.632Z,16.60
2023-01-26T22:36:57.498Z,31.13
2023-01-26T22:39:24.380Z,23.73
2023-01-26T22:41:51.254Z,24.17
2023-01-26T22:44:18.249Z,27.63
2023-01-26T22:46:45.095Z,18.83
2023-01-26T22:49:11.988Z,20.83
2023-01-26T22:51:39.011Z,28.57
2023-01-26T22:54:05.963Z,40.70
2023-01-26T22:56:33.432Z,37.00
2023-01-26T22:59:00.860Z,21.10
2023-01-26T23:01:33.096Z,26.40
2023-01-26T23:04:01.302Z,25.57
2023-01-26T23:06:28.780Z,24.33
2023-01-26T23:08:55.923Z,28.13
2023-01-26T23:11:26.313Z,29.53
2023-01-26T23:13:55.350Z,29.20
2023-01-26T23:16:23.866Z,20.63
2023-01-26T23:18:52.790Z,23.50
2023-01-26T23:21:20.197Z,25.40
2023-01-26T23:23:47.155Z,24.20
2023-01-26T23:26:14.505Z,19.47
2023-01-26T23:28:43.405Z,20.77
2023-01-26T23:31:12.244Z,37.30
2023-01-26T23:33:39.318Z,22.43
2023-01-26T23:36:07.949Z,26.80
2023-01-26T23:38:35.574Z,23.17
2023-01-26T23:41:02.862Z,29.40
2023-01-26T23:43:29.878Z,37.70
2023-01-26T23:45:57.505Z,26.10
2023-01-26T23:48:25.091Z,26.37
2023-01-26T23:51:00.243Z,24.73
2023-01-26T23:53:28.707Z,21.33
2023-01-26T23:55:57.755Z,23.73
2023-01-26T23:58:24.755Z,35.27
